createdAt,value
2022-11-01T00:06:16.245Z,1013.54
2022-11-01T00:21:16.866Z,1013.23
2022-11-01T00:36:16.488Z,1013.29
2022-11-01T00:51:17.098Z,1013.36
2022-11-01T01:06:17.170Z,1013.25
2022-11-01T01:21:17.299Z,1012.92
2022-11-01T01:36:17.390Z,1012.88
2022-11-01T01:51:17.973Z,1012.83
2022-11-01T02:06:18.111Z,1012.69
2022-11-01T02:21:18.704Z,1012.19
2022-11-01T02:36:18.762Z,1011.94
2022-11-01T02:51:18.885Z,1011.81
2022-11-01T03:06:19.526Z,1011.75
2022-11-01T03:21:20.729Z,1011.93
2022-11-01T03:36:20.701Z,1011.94
2022-11-01T03:51:20.832Z,1011.91
2022-11-01T04:06:21.421Z,1011.63
2022-11-01T04:21:21.012Z,1011.72
2022-11-01T04:36:21.106Z,1011.99
2022-11-01T04:51:21.214Z,1011.57
2022-11-01T05:06:21.886Z,1011.46
2022-11-01T05:21:22.994Z,1011.39
2022-11-01T05:36:23.580Z,1010.96
2022-11-01T05:51:24.138Z,1010.86
2022-11-01T06:06:24.710Z,1011.36
2022-11-01T06:21:27.635Z,1011.18
2022-11-01T06:36:29.485Z,1011.04
2022-11-01T06:51:30.085Z,1011.23
2022-11-01T07:06:29.703Z,1011.30
2022-11-01T07:21:29.777Z,1011.46
2022-11-01T07:36:29.893Z,1011.65
2022-11-01T07:51:30.016Z,1012.06
2022-11-01T08:06:30.147Z,1012.15
2022-11-01T08:21:30.222Z,1011.93
2022-11-01T08:36:31.359Z,1011.86
2022-11-01T08:51:32.007Z,1012.18
2022-11-01T09:06:36.216Z,1012.18
2022-11-01T09:21:37.171Z,1012.10
2022-11-01T09:36:37.254Z,1011.99
2022-11-01T09:51:37.397Z,1012.31
2022-11-01T10:06:37.462Z,1012.62
2022-11-01T10:21:37.656Z,1012.57
2022-11-01T10:51:38.273Z,1012.12
2022-11-01T11:06:37.861Z,1012.65
2022-11-01T11:21:37.985Z,1012.68
2022-11-01T11:36:39.058Z,1012.76
2022-11-01T11:51:40.681Z,1012.77
2022-11-01T12:06:40.752Z,1012.87
2022-11-01T12:21:41.363Z,1012.82
2022-11-01T12:36:41.458Z,1012.85
2022-11-01T12:51:41.559Z,1012.93
2022-11-01T13:06:41.649Z,1012.96
2022-11-01T13:21:42.248Z,1012.99
2022-11-01T13:36:41.831Z,1013.12
2022-11-01T13:51:42.473Z,1013.18
2022-11-01T14:06:43.035Z,1013.21
2022-11-01T14:21:43.157Z,1013.27
2022-11-01T14:36:43.232Z,1013.42
2022-11-01T14:51:43.849Z,1013.47
2022-11-01T15:06:43.425Z,1013.63
2022-11-01T15:21:47.037Z,1013.64
2022-11-01T15:36:48.155Z,1013.65
2022-11-01T15:51:48.731Z,1013.83
2022-11-01T16:06:48.849Z,1013.96
2022-11-01T16:21:48.492Z,1014.04
2022-11-01T16:36:48.591Z,1014.14
2022-11-01T16:51:49.099Z,1014.40
2022-11-01T17:06:48.728Z,1014.69
2022-11-01T17:21:48.837Z,1014.89
2022-11-01T17:36:49.479Z,1014.99
2022-11-01T17:51:54.373Z,1015.14
2022-11-01T18:06:55.143Z,1015.00
2022-11-01T18:21:54.770Z,1015.15
2022-11-01T18:36:55.358Z,1015.21
2022-11-01T18:51:55.508Z,1015.37
2022-11-01T19:06:55.115Z,1015.48
2022-11-01T19:21:55.209Z,1015.38
2022-11-01T19:36:55.347Z,1015.49
2022-11-01T19:51:55.467Z,1015.41
2022-11-01T20:06:55.530Z,1015.69
2022-11-01T20:21:55.719Z,1015.87
2022-11-01T20:37:22.785Z,1015.79
2022-11-01T20:52:26.095Z,1015.89
2022-11-01T21:07:06.084Z,1015.94
2022-11-01T21:22:06.337Z,1015.94
2022-11-01T21:37:06.862Z,1015.85
2022-11-01T21:52:07.501Z,1015.81
2022-11-01T22:07:08.066Z,1015.86
2022-11-01T22:22:09.132Z,1015.77
2022-11-01T22:37:08.779Z,1015.85
2022-11-01T22:52:09.354Z,1015.79
2022-11-01T23:07:09.991Z,1015.76
2022-11-01T23:22:10.112Z,1015.67
2022-11-01T23:37:10.201Z,1015.70
2022-11-01T23:52:10.315Z,1015.80
